sensor_id;sensor_type;location;lat;lon;timestamp;P1;P2;P0
74419;PMS5003;62855;50.718;-2.460;2024-01-30T00:01:08;8.17;5.87;
74419;PMS5003;62855;50.718;-2.460;2024-01-30T00:04:05;9.08;6.84;
74419;PMS5003;62855;50.718;-2.460;2024-01-30T00:07:06;9.08;5.87;
74419;PMS5003;62855;50.718;-2.460;2024-01-30T00:10:06;9.98;6.84;
74419;PMS5003;62855;50.718;-2.460;2024-01-30T00:13:06;8.17;5.87;
74419;PMS5003;62855;50.718;-2.460;2024-01-30T00:16:06;10.89;5.87;
74419;PMS5003;62855;50.718;-2.460;2024-01-30T00:19:05;9.98;5.87;
74419;PMS5003;62855;50.718;-2.460;2024-01-30T00:22:05;9.98;5.87;
74419;PMS5003;62855;50.718;-2.460;2024-01-30T00:25:06;9.98;4.89;
74419;PMS5003;62855;50.718;-2.460;2024-01-30T00:28:05;10.89;4.89;
74419;PMS5003;62855;50.718;-2.460;2024-01-30T00:31:05;11.80;5.87;
74419;PMS5003;62855;50.718;-2.460;2024-01-30T00:34:06;9.08;3.91;
74419;PMS5003;62855;50.718;-2.460;2024-01-30T00:37:07;9.98;4.89;
74419;PMS5003;62855;50.718;-2.460;2024-01-30T00:40:06;9.98;5.87;
74419;PMS5003;62855;50.718;-2.460;2024-01-30T00:43:06;9.98;5.87;
74419;PMS5003;62855;50.718;-2.460;2024-01-30T00:46:05;7.26;3.91;
74419;PMS5003;62855;50.718;-2.460;2024-01-30T00:49:06;7.26;4.89;
74419;PMS5003;62855;50.718;-2.460;2024-01-30T00:52:05;9.08;6.84;
74419;PMS5003;62855;50.718;-2.460;2024-01-30T00:55:06;13.61;6.84;
74419;PMS5003;62855;50.718;-2.460;2024-01-30T00:58:05;11.80;5.87;
74419;PMS5003;62855;50.718;-2.460;2024-01-30T01:01:07;14.52;7.82;
74419;PMS5003;62855;50.718;-2.460;2024-01-30T01:04:05;14.52;7.82;
74419;PMS5003;62855;50.718;-2.460;2024-01-30T01:07:06;14.52;6.84;
74419;PMS5003;62855;50.718;-2.460;2024-01-30T01:10:05;14.52;6.84;
74419;PMS5003;62855;50.718;-2.460;2024-01-30T01:13:06;14.52;7.82;
74419;PMS5003;62855;50.718;-2.460;2024-01-30T01:16:05;14.52;7.82;
74419;PMS5003;62855;50.718;-2.460;2024-01-30T01:19:06;16.34;8.80;
74419;PMS5003;62855;50.718;-2.460;2024-01-30T01:22:05;14.52;7.82;
74419;PMS5003;62855;50.718;-2.460;2024-01-30T01:25:08;10.89;8.80;
74419;PMS5003;62855;50.718;-2.460;2024-01-30T01:28:05;11.80;8.80;
74419;PMS5003;62855;50.718;-2.460;2024-01-30T01:31:06;9.08;6.84;
74419;PMS5003;62855;50.718;-2.460;2024-01-30T01:34:05;9.08;6.84;
74419;PMS5003;62855;50.718;-2.460;2024-01-30T01:37:08;9.98;7.82;
74419;PMS5003;62855;50.718;-2.460;2024-01-30T01:40:06;9.08;5.87;
74419;PMS5003;62855;50.718;-2.460;2024-01-30T01:43:05;9.98;6.84;
74419;PMS5003;62855;50.718;-2.460;2024-01-30T01:46:06;9.08;5.87;
74419;PMS5003;62855;50.718;-2.460;2024-01-30T01:49:05;8.17;4.89;
74419;PMS5003;62855;50.718;-2.460;2024-01-30T01:52:05;8.17;4.89;
74419;PMS5003;62855;50.718;-2.460;2024-01-30T01:55:06;10.89;6.84;
74419;PMS5003;62855;50.718;-2.460;2024-01-30T01:58:06;10.89;7.82;
74419;PMS5003;62855;50.718;-2.460;2024-01-30T02:01:06;9.98;7.82;
74419;PMS5003;62855;50.718;-2.460;2024-01-30T02:04:06;9.98;6.84;
74419;PMS5003;62855;50.718;-2.460;2024-01-30T02:07:05;9.08;6.84;
74419;PMS5003;62855;50.718;-2.460;2024-01-30T02:10:07;9.98;7.82;
74419;PMS5003;62855;50.718;-2.460;2024-01-30T02:13:05;9.98;7.82;
74419;PMS5003;62855;50.718;-2.460;2024-01-30T02:16:07;9.08;7.82;
74419;PMS5003;62855;50.718;-2.460;2024-01-30T02:19:06;9.08;7.82;
74419;PMS5003;62855;50.718;-2.460;2024-01-30T02:22:05;7.26;6.84;
74419;PMS5003;62855;50.718;-2.460;2024-01-30T02:25:06;7.26;6.84;
74419;PMS5003;62855;50.718;-2.460;2024-01-30T02:28:06;7.26;5.87;
74419;PMS5003;62855;50.718;-2.460;2024-01-30T02:31:05;7.26;5.87;
74419;PMS5003;62855;50.718;-2.460;2024-01-30T02:34:05;8.17;6.84;
74419;PMS5003;62855;50.718;-2.460;2024-01-30T02:37:06;7.26;5.87;
74419;PMS5003;62855;50.718;-2.460;2024-01-30T02:40:06;7.26;5.87;
74419;PMS5003;62855;50.718;-2.460;2024-01-30T02:43:06;6.35;4.89;
74419;PMS5003;62855;50.718;-2.460;2024-01-30T02:46:05;7.26;5.87;
74419;PMS5003;62855;50.718;-2.460;2024-01-30T02:49:07;6.35;4.89;
74419;PMS5003;62855;50.718;-2.460;2024-01-30T02:52:06;6.35;4.89;
74419;PMS5003;62855;50.718;-2.460;2024-01-30T02:55:05;7.26;5.87;
74419;PMS5003;62855;50.718;-2.460;2024-01-30T02:58:05;6.35;4.89;
74419;PMS5003;62855;50.718;-2.460;2024-01-30T03:01:06;6.35;4.89;
74419;PMS5003;62855;50.718;-2.460;2024-01-30T03:04:05;4.54;3.91;
74419;PMS5003;62855;50.718;-2.460;2024-01-30T03:07:06;4.54;3.91;
74419;PMS5003;62855;50.718;-2.460;2024-01-30T03:10:06;4.54;3.91;
74419;PMS5003;62855;50.718;-2.460;2024-01-30T03:13:06;4.54;3.91;
74419;PMS5003;62855;50.718;-2.460;2024-01-30T03:16:08;8.17;4.89;
74419;PMS5003;62855;50.718;-2.460;2024-01-30T03:19:06;8.17;4.89;
74419;PMS5003;62855;50.718;-2.460;2024-01-30T03:22:05;9.98;4.89;
74419;PMS5003;62855;50.718;-2.460;2024-01-30T03:25:06;9.08;3.91;
74419;PMS5003;62855;50.718;-2.460;2024-01-30T03:28:06;9.98;4.89;
74419;PMS5003;62855;50.718;-2.460;2024-01-30T03:31:05;9.98;4.89;
74419;PMS5003;62855;50.718;-2.460;2024-01-30T03:34:05;10.89;5.87;
74419;PMS5003;62855;50.718;-2.460;2024-01-30T03:37:05;10.89;5.87;
74419;PMS5003;62855;50.718;-2.460;2024-01-30T03:40:06;11.80;6.84;
74419;PMS5003;62855;50.718;-2.460;2024-01-30T03:43:05;10.89;5.87;
74419;PMS5003;62855;50.718;-2.460;2024-01-30T03:46:06;6.35;4.89;
74419;PMS5003;62855;50.718;-2.460;2024-01-30T03:49:05;6.35;4.89;
74419;PMS5003;62855;50.718;-2.460;2024-01-30T03:52:05;7.26;5.87;
74419;PMS5003;62855;50.718;-2.460;2024-01-30T03:55:06;6.35;5.87;
74419;PMS5003;62855;50.718;-2.460;2024-01-30T03:58:06;8.17;6.84;
74419;PMS5003;62855;50.718;-2.460;2024-01-30T04:01:05;9.08;7.82;
74419;PMS5003;62855;50.718;-2.460;2024-01-30T04:04:06;9.08;8.80;
74419;PMS5003;62855;50.718;-2.460;2024-01-30T04:07:06;9.08;8.80;
74419;PMS5003;62855;50.718;-2.460;2024-01-30T04:10:06;9.98;8.80;
74419;PMS5003;62855;50.718;-2.460;2024-01-30T04:13:05;13.61;11.73;
74419;PMS5003;62855;50.718;-2.460;2024-01-30T04:16:06;14.52;12.71;
74419;PMS5003;62855;50.718;-2.460;2024-01-30T04:19:05;15.43;13.69;
74419;PMS5003;62855;50.718;-2.460;2024-01-30T04:22:06;13.61;11.73;
74419;PMS5003;62855;50.718;-2.460;2024-01-30T04:25:05;13.61;11.73;
74419;PMS5003;62855;50.718;-2.460;2024-01-30T04:28:06;13.61;11.73;
74419;PMS5003;62855;50.718;-2.460;2024-01-30T04:31:05;13.61;12.71;
74419;PMS5003;62855;50.718;-2.460;2024-01-30T04:34:06;11.80;9.78;
74419;PMS5003;62855;50.718;-2.460;2024-01-30T04:37:05;10.89;8.80;
74419;PMS5003;62855;50.718;-2.460;2024-01-30T04:40:08;10.89;9.78;
74419;PMS5003;62855;50.718;-2.460;2024-01-30T04:43:05;8.17;6.84;
74419;PMS5003;62855;50.718;-2.460;2024-01-30T04:46:06;8.17;5.87;
74419;PMS5003;62855;50.718;-2.460;2024-01-30T04:49:05;8.17;6.84;
74419;PMS5003;62855;50.718;-2.460;2024-01-30T04:52:06;7.26;4.89;
74419;PMS5003;62855;50.718;-2.460;2024-01-30T04:55:06;7.26;4.89;
74419;PMS5003;62855;50.718;-2.460;2024-01-30T04:58:07;7.26;4.89;
74419;PMS5003;62855;50.718;-2.460;2024-01-30T05:01:06;7.26;3.91;
74419;PMS5003;62855;50.718;-2.460;2024-01-30T05:04:07;10.89;5.87;
74419;PMS5003;62855;50.718;-2.460;2024-01-30T05:07:05;11.80;4.89;
74419;PMS5003;62855;50.718;-2.460;2024-01-30T05:10:06;11.80;4.89;
74419;PMS5003;62855;50.718;-2.460;2024-01-30T05:13:05;13.61;5.87;
74419;PMS5003;62855;50.718;-2.460;2024-01-30T05:16:06;13.61;5.87;
74419;PMS5003;62855;50.718;-2.460;2024-01-30T05:19:05;12.71;4.89;
74419;PMS5003;62855;50.718;-2.460;2024-01-30T05:22:06;13.61;5.87;
74419;PMS5003;62855;50.718;-2.460;2024-01-30T05:25:05;12.71;5.87;
74419;PMS5003;62855;50.718;-2.460;2024-01-30T05:28:06;11.80;4.89;
74419;PMS5003;62855;50.718;-2.460;2024-01-30T05:31:05;11.80;6.84;
74419;PMS5003;62855;50.718;-2.460;2024-01-30T05:34:07;9.98;6.84;
74419;PMS5003;62855;50.718;-2.460;2024-01-30T05:37:05;9.98;7.82;
74419;PMS5003;62855;50.718;-2.460;2024-01-30T05:40:06;13.61;8.80;
74419;PMS5003;62855;50.718;-2.460;2024-01-30T05:43:06;12.71;6.84;
74419;PMS5003;62855;50.718;-2.460;2024-01-30T05:46:06;12.71;6.84;
74419;PMS5003;62855;50.718;-2.460;2024-01-30T05:49:06;13.61;7.82;
74419;PMS5003;62855;50.718;-2.460;2024-01-30T05:52:05;14.52;8.80;
74419;PMS5003;62855;50.718;-2.460;2024-01-30T05:55:06;15.43;9.78;
74419;PMS5003;62855;50.718;-2.460;2024-01-30T05:58:06;19.06;10.76;
74419;PMS5003;62855;50.718;-2.460;2024-01-30T06:01:06;21.78;14.67;
74419;PMS5003;62855;50.718;-2.460;2024-01-30T06:04:06;24.51;13.69;
74419;PMS5003;62855;50.718;-2.460;2024-01-30T06:07:05;17.24;10.76;
74419;PMS5003;62855;50.718;-2.460;2024-01-30T06:10:06;16.34;10.76;
74419;PMS5003;62855;50.718;-2.460;2024-01-30T06:13:06;16.34;9.78;
74419;PMS5003;62855;50.718;-2.460;2024-01-30T06:16:08;14.52;7.82;
74419;PMS5003;62855;50.718;-2.460;2024-01-30T06:19:05;13.61;8.80;
74419;PMS5003;62855;50.718;-2.460;2024-01-30T06:22:07;12.71;8.80;
74419;PMS5003;62855;50.718;-2.460;2024-01-30T06:25:06;13.61;8.80;
74419;PMS5003;62855;50.718;-2.460;2024-01-30T06:28:05;10.89;9.78;
74419;PMS5003;62855;50.718;-2.460;2024-01-30T06:31:06;10.89;8.80;
74419;PMS5003;62855;50.718;-2.460;2024-01-30T06:34:05;11.80;8.80;
74419;PMS5003;62855;50.718;-2.460;2024-01-30T06:37:05;11.80;8.80;
74419;PMS5003;62855;50.718;-2.460;2024-01-30T06:40:06;11.80;7.82;
74419;PMS5003;62855;50.718;-2.460;2024-01-30T06:43:05;11.80;7.82;
74419;PMS5003;62855;50.718;-2.460;2024-01-30T06:46:06;11.80;7.82;
74419;PMS5003;62855;50.718;-2.460;2024-01-30T06:49:05;13.61;7.82;
74419;PMS5003;62855;50.718;-2.460;2024-01-30T06:52:06;13.61;7.82;
74419;PMS5003;62855;50.718;-2.460;2024-01-30T06:55:05;13.61;7.82;
74419;PMS5003;62855;50.718;-2.460;2024-01-30T06:58:07;12.71;6.84;
74419;PMS5003;62855;50.718;-2.460;2024-01-30T07:01:06;11.80;6.84;
74419;PMS5003;62855;50.718;-2.460;2024-01-30T07:04:05;10.89;7.82;
74419;PMS5003;62855;50.718;-2.460;2024-01-30T07:07:06;9.08;6.84;
74419;PMS5003;62855;50.718;-2.460;2024-01-30T07:10:06;9.98;6.84;
74419;PMS5003;62855;50.718;-2.460;2024-01-30T07:13:05;8.17;5.87;
74419;PMS5003;62855;50.718;-2.460;2024-01-30T07:16:06;9.08;7.82;
74419;PMS5003;62855;50.718;-2.460;2024-01-30T07:19:06;7.26;6.84;
74419;PMS5003;62855;50.718;-2.460;2024-01-30T07:22:05;8.17;7.82;
74419;PMS5003;62855;50.718;-2.460;2024-01-30T07:25:06;8.17;6.84;
74419;PMS5003;62855;50.718;-2.460;2024-01-30T07:28:06;8.17;6.84;
74419;PMS5003;62855;50.718;-2.460;2024-01-30T07:31:05;9.98;7.82;
74419;PMS5003;62855;50.718;-2.460;2024-01-30T07:34:06;9.98;8.80;
74419;PMS5003;62855;50.718;-2.460;2024-01-30T07:37:06;9.98;8.80;
74419;PMS5003;62855;50.718;-2.460;2024-01-30T07:40:06;10.89;8.80;
74419;PMS5003;62855;50.718;-2.460;2024-01-30T07:43:06;11.80;9.78;
74419;PMS5003;62855;50.718;-2.460;2024-01-30T07:46:05;11.80;7.82;
74419;PMS5003;62855;50.718;-2.460;2024-01-30T07:49:05;13.61;10.76;
74419;PMS5003;62855;50.718;-2.460;2024-01-30T07:52:06;11.80;8.80;
74419;PMS5003;62855;50.718;-2.460;2024-01-30T07:55:05;10.89;7.82;
74419;PMS5003;62855;50.718;-2.460;2024-01-30T07:58:07;14.52;9.78;
74419;PMS5003;62855;50.718;-2.460;2024-01-30T08:01:06;17.24;9.78;
74419;PMS5003;62855;50.718;-2.460;2024-01-30T08:04:06;23.60;10.76;
74419;PMS5003;62855;50.718;-2.460;2024-01-30T08:07:06;24.51;10.76;
74419;PMS5003;62855;50.718;-2.460;2024-01-30T08:10:05;24.51;11.73;
74419;PMS5003;62855;50.718;-2.460;2024-01-30T08:13:06;24.51;11.73;
74419;PMS5003;62855;50.718;-2.460;2024-01-30T08:16:06;22.69;10.76;
74419;PMS5003;62855;50.718;-2.460;2024-01-30T08:19:05;21.78;9.78;
74419;PMS5003;62855;50.718;-2.460;2024-01-30T08:22:06;20.87;9.78;
74419;PMS5003;62855;50.718;-2.460;2024-01-30T08:25:06;16.34;7.82;
74419;PMS5003;62855;50.718;-2.460;2024-01-30T08:28:06;12.71;7.82;
74419;PMS5003;62855;50.718;-2.460;2024-01-30T08:31:06;9.08;6.84;
74419;PMS5003;62855;50.718;-2.460;2024-01-30T08:34:05;9.08;5.87;
74419;PMS5003;62855;50.718;-2.460;2024-01-30T08:37:05;9.08;5.87;
74419;PMS5003;62855;50.718;-2.460;2024-01-30T08:40:07;8.17;5.87;
74419;PMS5003;62855;50.718;-2.460;2024-01-30T08:43:05;6.35;4.89;
74419;PMS5003;62855;50.718;-2.460;2024-01-30T08:46:05;5.45;3.91;
74419;PMS5003;62855;50.718;-2.460;2024-01-30T08:49:06;5.45;4.89;
74419;PMS5003;62855;50.718;-2.460;2024-01-30T08:52:05;4.54;2.93;
74419;PMS5003;62855;50.718;-2.460;2024-01-30T08:55:06;5.45;4.89;
74419;PMS5003;62855;50.718;-2.460;2024-01-30T08:58:06;6.35;4.89;
74419;PMS5003;62855;50.718;-2.460;2024-01-30T09:01:05;6.35;4.89;
74419;PMS5003;62855;50.718;-2.460;2024-01-30T09:04:07;7.26;4.89;
74419;PMS5003;62855;50.718;-2.460;2024-01-30T09:07:06;6.35;4.89;
74419;PMS5003;62855;50.718;-2.460;2024-01-30T09:10:05;8.17;5.87;
74419;PMS5003;62855;50.718;-2.460;2024-01-30T09:13:05;8.17;6.84;
74419;PMS5003;62855;50.718;-2.460;2024-01-30T09:16:06;9.08;6.84;
74419;PMS5003;62855;50.718;-2.460;2024-01-30T09:19:06;7.26;5.87;
74419;PMS5003;62855;50.718;-2.460;2024-01-30T09:22:05;7.26;4.89;
74419;PMS5003;62855;50.718;-2.460;2024-01-30T09:25:06;8.17;5.87;
74419;PMS5003;62855;50.718;-2.460;2024-01-30T09:28:05;7.26;5.87;
74419;PMS5003;62855;50.718;-2.460;2024-01-30T09:31:09;8.17;5.87;
74419;PMS5003;62855;50.718;-2.460;2024-01-30T09:34:05;8.17;5.87;
74419;PMS5003;62855;50.718;-2.460;2024-01-30T09:37:07;7.26;5.87;
74419;PMS5003;62855;50.718;-2.460;2024-01-30T09:40:07;6.35;4.89;
74419;PMS5003;62855;50.718;-2.460;2024-01-30T09:43:05;7.26;4.89;
74419;PMS5003;62855;50.718;-2.460;2024-01-30T09:46:06;7.26;4.89;
74419;PMS5003;62855;50.718;-2.460;2024-01-30T09:49:05;7.26;4.89;
74419;PMS5003;62855;50.718;-2.460;2024-01-30T09:52:06;6.35;4.89;
74419;PMS5003;62855;50.718;-2.460;2024-01-30T09:55:06;6.35;4.89;
74419;PMS5003;62855;50.718;-2.460;2024-01-30T09:58:06;7.26;4.89;
74419;PMS5003;62855;50.718;-2.460;2024-01-30T10:01:05;6.35;4.89;
74419;PMS5003;62855;50.718;-2.460;2024-01-30T10:04:06;6.35;4.89;
74419;PMS5003;62855;50.718;-2.460;2024-01-30T10:07:07;6.35;3.91;
74419;PMS5003;62855;50.718;-2.460;2024-01-30T10:10:06;7.26;4.89;
74419;PMS5003;62855;50.718;-2.460;2024-01-30T10:13:06;6.35;4.89;
74419;PMS5003;62855;50.718;-2.460;2024-01-30T10:16:05;5.45;3.91;
74419;PMS5003;62855;50.718;-2.460;2024-01-30T10:19:05;6.35;2.93;
74419;PMS5003;62855;50.718;-2.460;2024-01-30T10:22:05;7.26;3.91;
74419;PMS5003;62855;50.718;-2.460;2024-01-30T10:25:05;8.17;4.89;
74419;PMS5003;62855;50.718;-2.460;2024-01-30T10:28:05;8.17;4.89;
74419;PMS5003;62855;50.718;-2.460;2024-01-30T10:31:06;8.17;4.89;
74419;PMS5003;62855;50.718;-2.460;2024-01-30T10:34:06;8.17;5.87;
74419;PMS5003;62855;50.718;-2.460;2024-01-30T10:37:07;8.17;5.87;
74419;PMS5003;62855;50.718;-2.460;2024-01-30T10:40:06;9.08;6.84;
74419;PMS5003;62855;50.718;-2.460;2024-01-30T10:43:05;9.08;6.84;
74419;PMS5003;62855;50.718;-2.460;2024-01-30T10:46:06;9.08;6.84;
74419;PMS5003;62855;50.718;-2.460;2024-01-30T10:49:05;8.17;7.82;
74419;PMS5003;62855;50.718;-2.460;2024-01-30T10:52:06;8.17;6.84;
74419;PMS5003;62855;50.718;-2.460;2024-01-30T10:55:06;8.17;6.84;
74419;PMS5003;62855;50.718;-2.460;2024-01-30T10:58:06;7.26;5.87;
74419;PMS5003;62855;50.718;-2.460;2024-01-30T11:01:05;7.26;5.87;
74419;PMS5003;62855;50.718;-2.460;2024-01-30T11:04:06;6.35;5.87;
74419;PMS5003;62855;50.718;-2.460;2024-01-30T11:10:06;12.71;8.80;
74419;PMS5003;62855;50.718;-2.460;2024-01-30T11:13:09;24.51;11.73;
74419;PMS5003;62855;50.718;-2.460;2024-01-30T11:16:05;26.32;12.71;
74419;PMS5003;62855;50.718;-2.460;2024-01-30T11:19:05;24.51;9.78;
74419;PMS5003;62855;50.718;-2.460;2024-01-30T11:22:06;20.87;7.82;
74419;PMS5003;62855;50.718;-2.460;2024-01-30T11:25:06;20.87;6.84;
74419;PMS5003;62855;50.718;-2.460;2024-01-30T11:28:05;19.06;6.84;
74419;PMS5003;62855;50.718;-2.460;2024-01-30T11:31:06;17.24;6.84;
74419;PMS5003;62855;50.718;-2.460;2024-01-30T11:34:05;13.61;5.87;
74419;PMS5003;62855;50.718;-2.460;2024-01-30T11:37:07;12.71;4.89;
74419;PMS5003;62855;50.718;-2.460;2024-01-30T11:40:06;12.71;5.87;
74419;PMS5003;62855;50.718;-2.460;2024-01-30T11:43:06;17.24;8.80;
74419;PMS5003;62855;50.718;-2.460;2024-01-30T11:46:06;21.78;9.78;
74419;PMS5003;62855;50.718;-2.460;2024-01-30T11:49:05;20.87;8.80;
74419;PMS5003;62855;50.718;-2.460;2024-01-30T11:52:06;22.69;9.78;
74419;PMS5003;62855;50.718;-2.460;2024-01-30T11:55:06;17.24;5.87;
74419;PMS5003;62855;50.718;-2.460;2024-01-30T11:58:05;13.61;5.87;
74419;PMS5003;62855;50.718;-2.460;2024-01-30T12:01:05;11.80;5.87;
74419;PMS5003;62855;50.718;-2.460;2024-01-30T12:04:06;10.89;5.87;
74419;PMS5003;62855;50.718;-2.460;2024-01-30T12:07:05;11.80;5.87;
74419;PMS5003;62855;50.718;-2.460;2024-01-30T12:10:08;10.89;5.87;
74419;PMS5003;62855;50.718;-2.460;2024-01-30T12:13:06;10.89;5.87;
74419;PMS5003;62855;50.718;-2.460;2024-01-30T12:16:06;11.80;6.84;
74419;PMS5003;62855;50.718;-2.460;2024-01-30T12:19:06;11.80;6.84;
74419;PMS5003;62855;50.718;-2.460;2024-01-30T12:22:10;11.80;6.84;
74419;PMS5003;62855;50.718;-2.460;2024-01-30T12:25:07;11.80;6.84;
74419;PMS5003;62855;50.718;-2.460;2024-01-30T12:28:05;12.71;6.84;
74419;PMS5003;62855;50.718;-2.460;2024-01-30T12:31:06;12.71;7.82;
74419;PMS5003;62855;50.718;-2.460;2024-01-30T12:34:05;11.80;7.82;
74419;PMS5003;62855;50.718;-2.460;2024-01-30T12:37:06;11.80;7.82;
74419;PMS5003;62855;50.718;-2.460;2024-01-30T12:40:07;12.71;7.82;
74419;PMS5003;62855;50.718;-2.460;2024-01-30T12:43:06;12.71;7.82;
74419;PMS5003;62855;50.718;-2.460;2024-01-30T12:46:06;9.98;6.84;
74419;PMS5003;62855;50.718;-2.460;2024-01-30T12:49:06;9.08;6.84;
74419;PMS5003;62855;50.718;-2.460;2024-01-30T12:52:06;9.08;6.84;
74419;PMS5003;62855;50.718;-2.460;2024-01-30T12:55:06;10.89;6.84;
74419;PMS5003;62855;50.718;-2.460;2024-01-30T12:58:06;9.98;5.87;
74419;PMS5003;62855;50.718;-2.460;2024-01-30T13:01:05;11.80;5.87;
74419;PMS5003;62855;50.718;-2.460;2024-01-30T13:04:06;12.71;6.84;
74419;PMS5003;62855;50.718;-2.460;2024-01-30T13:07:05;10.89;6.84;
74419;PMS5003;62855;50.718;-2.460;2024-01-30T13:10:06;11.80;6.84;
74419;PMS5003;62855;50.718;-2.460;2024-01-30T13:13:05;11.80;6.84;
74419;PMS5003;62855;50.718;-2.460;2024-01-30T13:16:06;12.71;7.82;
74419;PMS5003;62855;50.718;-2.460;2024-01-30T13:19:05;11.80;7.82;
74419;PMS5003;62855;50.718;-2.460;2024-01-30T13:22:06;10.89;6.84;
74419;PMS5003;62855;50.718;-2.460;2024-01-30T13:25:06;10.89;7.82;
74419;PMS5003;62855;50.718;-2.460;2024-01-30T13:28:05;13.61;8.80;
74419;PMS5003;62855;50.718;-2.460;2024-01-30T13:31:05;12.71;8.80;
74419;PMS5003;62855;50.718;-2.460;2024-01-30T13:34:06;11.80;7.82;
74419;PMS5003;62855;50.718;-2.460;2024-01-30T13:37:05;11.80;8.80;
74419;PMS5003;62855;50.718;-2.460;2024-01-30T13:40:06;10.89;7.82;
74419;PMS5003;62855;50.718;-2.460;2024-01-30T13:43:05;10.89;7.82;
74419;PMS5003;62855;50.718;-2.460;2024-01-30T13:46:06;9.98;6.84;
74419;PMS5003;62855;50.718;-2.460;2024-01-30T13:49:06;12.71;8.80;
74419;PMS5003;62855;50.718;-2.460;2024-01-30T13:52:05;12.71;8.80;
74419;PMS5003;62855;50.718;-2.460;2024-01-30T13:55:06;11.80;7.82;
74419;PMS5003;62855;50.718;-2.460;2024-01-30T13:58:06;9.08;6.84;
74419;PMS5003;62855;50.718;-2.460;2024-01-30T14:01:06;9.08;6.84;
74419;PMS5003;62855;50.718;-2.460;2024-01-30T14:04:06;9.98;6.84;
74419;PMS5003;62855;50.718;-2.460;2024-01-30T14:07:05;11.80;7.82;
74419;PMS5003;62855;50.718;-2.460;2024-01-30T14:10:06;12.71;8.80;
74419;PMS5003;62855;50.718;-2.460;2024-01-30T14:13:05;11.80;8.80;
74419;PMS5003;62855;50.718;-2.460;2024-01-30T14:16:06;13.61;10.76;
74419;PMS5003;62855;50.718;-2.460;2024-01-30T14:19:05;12.71;9.78;
74419;PMS5003;62855;50.718;-2.460;2024-01-30T14:22:07;12.71;9.78;
74419;PMS5003;62855;50.718;-2.460;2024-01-30T14:25:06;12.71;9.78;
74419;PMS5003;62855;50.718;-2.460;2024-01-30T14:28:05;11.80;8.80;
74419;PMS5003;62855;50.718;-2.460;2024-01-30T14:31:06;11.80;9.78;
74419;PMS5003;62855;50.718;-2.460;2024-01-30T14:34:07;11.80;9.78;
74419;PMS5003;62855;50.718;-2.460;2024-01-30T14:37:05;10.89;9.78;
74419;PMS5003;62855;50.718;-2.460;2024-01-30T14:40:06;10.89;8.80;
74419;PMS5003;62855;50.718;-2.460;2024-01-30T14:43:05;10.89;8.80;
74419;PMS5003;62855;50.718;-2.460;2024-01-30T14:46:05;9.98;7.82;
74419;PMS5003;62855;50.718;-2.460;2024-01-30T14:49:06;9.98;7.82;
74419;PMS5003;62855;50.718;-2.460;2024-01-30T14:52:05;9.98;8.80;
74419;PMS5003;62855;50.718;-2.460;2024-01-30T14:55:05;9.98;7.82;
74419;PMS5003;62855;50.718;-2.460;2024-01-30T14:58:05;10.89;8.80;
74419;PMS5003;62855;50.718;-2.460;2024-01-30T15:01:07;10.89;8.80;
74419;PMS5003;62855;50.718;-2.460;2024-01-30T15:04:06;11.80;8.80;
74419;PMS5003;62855;50.718;-2.460;2024-01-30T15:07:06;11.80;7.82;
74419;PMS5003;62855;50.718;-2.460;2024-01-30T15:10:06;11.80;9.78;
74419;PMS5003;62855;50.718;-2.460;2024-01-30T15:13:06;11.80;8.80;
74419;PMS5003;62855;50.718;-2.460;2024-01-30T15:16:06;10.89;8.80;
74419;PMS5003;62855;50.718;-2.460;2024-01-30T15:19:06;9.98;7.82;
74419;PMS5003;62855;50.718;-2.460;2024-01-30T15:22:07;9.98;7.82;
74419;PMS5003;62855;50.718;-2.460;2024-01-30T15:25:05;10.89;8.80;
74419;PMS5003;62855;50.718;-2.460;2024-01-30T15:28:05;10.89;8.80;
74419;PMS5003;62855;50.718;-2.460;2024-01-30T15:31:06;9.08;7.82;
74419;PMS5003;62855;50.718;-2.460;2024-01-30T15:34:06;14.52;11.73;
74419;PMS5003;62855;50.718;-2.460;2024-01-30T15:37:06;16.34;11.73;
74419;PMS5003;62855;50.718;-2.460;2024-01-30T15:40:07;18.15;11.73;
74419;PMS5003;62855;50.718;-2.460;2024-01-30T15:43:06;19.06;11.73;
74419;PMS5003;62855;50.718;-2.460;2024-01-30T15:46:05;13.61;7.82;
74419;PMS5003;62855;50.718;-2.460;2024-01-30T15:49:06;11.80;7.82;
74419;PMS5003;62855;50.718;-2.460;2024-01-30T15:52:07;12.71;8.80;
74419;PMS5003;62855;50.718;-2.460;2024-01-30T15:55:05;11.80;8.80;
74419;PMS5003;62855;50.718;-2.460;2024-01-30T15:58:06;12.71;9.78;
74419;PMS5003;62855;50.718;-2.460;2024-01-30T16:01:05;13.61;9.78;
74419;PMS5003;62855;50.718;-2.460;2024-01-30T16:04:07;14.52;10.76;
74419;PMS5003;62855;50.718;-2.460;2024-01-30T16:07:06;14.52;10.76;
74419;PMS5003;62855;50.718;-2.460;2024-01-30T16:10:06;17.24;9.78;
74419;PMS5003;62855;50.718;-2.460;2024-01-30T16:13:06;16.34;9.78;
74419;PMS5003;62855;50.718;-2.460;2024-01-30T16:16:05;16.34;9.78;
74419;PMS5003;62855;50.718;-2.460;2024-01-30T16:19:05;15.43;9.78;
74419;PMS5003;62855;50.718;-2.460;2024-01-30T16:22:06;15.43;9.78;
74419;PMS5003;62855;50.718;-2.460;2024-01-30T16:25:05;14.52;8.80;
74419;PMS5003;62855;50.718;-2.460;2024-01-30T16:28:06;12.71;6.84;
74419;PMS5003;62855;50.718;-2.460;2024-01-30T16:31:05;12.71;7.82;
74419;PMS5003;62855;50.718;-2.460;2024-01-30T16:34:06;10.89;7.82;
74419;PMS5003;62855;50.718;-2.460;2024-01-30T16:37:06;8.17;5.87;
74419;PMS5003;62855;50.718;-2.460;2024-01-30T16:40:07;7.26;5.87;
74419;PMS5003;62855;50.718;-2.460;2024-01-30T16:43:06;7.26;6.84;
74419;PMS5003;62855;50.718;-2.460;2024-01-30T16:46:05;8.17;6.84;
74419;PMS5003;62855;50.718;-2.460;2024-01-30T16:49:06;7.26;6.84;
74419;PMS5003;62855;50.718;-2.460;2024-01-30T16:52:05;9.08;6.84;
74419;PMS5003;62855;50.718;-2.460;2024-01-30T16:55:06;8.17;6.84;
74419;PMS5003;62855;50.718;-2.460;2024-01-30T16:58:06;9.08;6.84;
74419;PMS5003;62855;50.718;-2.460;2024-01-30T17:01:05;9.08;6.84;
74419;PMS5003;62855;50.718;-2.460;2024-01-30T17:04:07;9.98;7.82;
74419;PMS5003;62855;50.718;-2.460;2024-01-30T17:07:05;9.98;6.84;
74419;PMS5003;62855;50.718;-2.460;2024-01-30T17:10:06;9.98;7.82;
74419;PMS5003;62855;50.718;-2.460;2024-01-30T17:13:06;9.08;6.84;
74419;PMS5003;62855;50.718;-2.460;2024-01-30T17:16:06;8.17;6.84;
74419;PMS5003;62855;50.718;-2.460;2024-01-30T17:19:06;9.08;6.84;
74419;PMS5003;62855;50.718;-2.460;2024-01-30T17:22:05;9.08;5.87;
74419;PMS5003;62855;50.718;-2.460;2024-01-30T17:25:06;9.98;6.84;
74419;PMS5003;62855;50.718;-2.460;2024-01-30T17:28:06;9.08;5.87;
74419;PMS5003;62855;50.718;-2.460;2024-01-30T17:31:05;9.08;5.87;
74419;PMS5003;62855;50.718;-2.460;2024-01-30T17:34:05;7.26;3.91;
74419;PMS5003;62855;50.718;-2.460;2024-01-30T17:37:06;8.17;5.87;
74419;PMS5003;62855;50.718;-2.460;2024-01-30T17:40:06;8.17;4.89;
74419;PMS5003;62855;50.718;-2.460;2024-01-30T17:43:06;10.89;5.87;
74419;PMS5003;62855;50.718;-2.460;2024-01-30T17:46:15;15.43;10.76;
74419;PMS5003;62855;50.718;-2.460;2024-01-30T17:49:06;14.52;9.78;
74419;PMS5003;62855;50.718;-2.460;2024-01-30T17:52:05;17.24;10.76;
74419;PMS5003;62855;50.718;-2.460;2024-01-30T17:55:06;15.43;10.76;
74419;PMS5003;62855;50.718;-2.460;2024-01-30T17:58:07;14.52;7.82;
74419;PMS5003;62855;50.718;-2.460;2024-01-30T18:01:06;13.61;8.80;
74419;PMS5003;62855;50.718;-2.460;2024-01-30T18:04:06;15.43;10.76;
74419;PMS5003;62855;50.718;-2.460;2024-01-30T18:07:06;14.52;9.78;
74419;PMS5003;62855;50.718;-2.460;2024-01-30T18:10:06;15.43;9.78;
74419;PMS5003;62855;50.718;-2.460;2024-01-30T18:13:05;14.52;10.76;